Time;durP1;ratioP1;P1;durP2;ratioP2;P2;SDS_P1;SDS_P2;PMS_P1;PMS_P2;Temp;Humidity;BMP_temperature;BMP_pressure;BME280_temperature;BME280_humidity;BME280_pressure;Samples;Min_cycle;Max_cycle;Signal;HPM_P1;HPM_P2
2022/01/27 00:01:01;;;;;;;1.70;1.65;;;;;;;2.46;77.38;102406.72;5234453;28;20484;-83
2022/01/27 00:03:37;;;;;;;2.47;2.35;;;;;;;2.47;77.49;102400.72;5206732;28;20119;-85
2022/01/27 00:06:09;;;;;;;2.53;2.38;;;;;;;2.49;77.57;102396.47;5207866;28;20132;-82
2022/01/27 00:08:56;;;;;;;1.48;1.48;;;;;;;2.36;77.48;102399.44;5225006;28;20044;-85
2022/01/27 00:11:26;;;;;;;1.52;1.40;;;;;;;2.37;77.79;102396.03;5210413;28;20039;-83
2022/01/27 00:14:00;;;;;;;2.40;2.00;;;;;;;2.38;77.82;102386.56;5183477;28;20034;-83
2022/01/27 00:16:38;;;;;;;2.22;2.13;;;;;;;2.38;77.47;102377.06;5191986;28;20135;-86
2022/01/27 00:19:10;;;;;;;1.55;1.50;;;;;;;2.41;77.79;102376.28;5212760;28;20029;-85
2022/01/27 00:21:41;;;;;;;3.13;2.92;;;;;;;2.32;78.11;102371.69;5225388;28;20453;-83
2022/01/27 00:24:12;;;;;;;1.92;1.83;;;;;;;2.28;77.82;102362.94;5237438;28;20044;-84
2022/01/27 00:26:43;;;;;;;3.65;3.42;;;;;;;2.28;78.24;102369.81;5226301;28;20030;-83
2022/01/27 00:29:14;;;;;;;4.65;3.85;;;;;;;2.20;78.53;102382.53;5183981;28;20041;-83
2022/01/27 00:31:44;;;;;;;1.00;1.00;;;;;;;2.20;78.65;102378.22;5215783;28;20063;-83
2022/01/27 00:34:15;;;;;;;1.98;1.88;;;;;;;2.24;77.88;102371.44;5200914;28;20485;-84
2022/01/27 00:36:45;;;;;;;2.20;2.10;;;;;;;2.20;78.25;102367.00;5215245;28;20116;-83
2022/01/27 00:39:15;;;;;;;5.25;3.20;;;;;;;2.18;78.60;102353.09;5208674;28;20106;-83
2022/01/27 00:41:46;;;;;;;1.02;1.02;;;;;;;2.20;78.74;102352.31;5235261;28;20218;-83
2022/01/27 00:44:17;;;;;;;1.17;1.17;;;;;;;2.22;78.90;102344.63;5223789;28;20091;-85
2022/01/27 00:46:47;;;;;;;3.20;2.45;;;;;;;2.24;78.44;102348.13;5225097;28;20043;-83
2022/01/27 00:49:18;;;;;;;2.20;2.08;;;;;;;2.20;78.76;102341.09;5208561;28;20037;-85
2022/01/27 00:51:48;;;;;;;8.05;4.28;;;;;;;2.28;78.78;102328.38;5205142;28;20016;-84
2022/01/27 00:54:23;;;;;;;2.47;2.38;;;;;;;2.24;78.57;102331.72;5202775;28;20052;-86
2022/01/27 00:57:03;;;;;;;2.10;1.85;;;;;;;2.18;78.78;102324.59;5238339;28;20036;-85
2022/01/27 00:59:46;;;;;;;1.88;1.77;;;;;;;2.23;78.95;102317.00;5222121;28;20540;-85
2022/01/27 01:06:17;;;;;;;2.00;1.90;;;;;;;2.18;78.95;102280.59;5217724;28;20051;-85
2022/01/27 01:15:56;;;;;;;1.55;1.48;;;;;;;2.34;78.16;102261.25;5237304;28;20067;-86
2022/01/27 01:18:47;;;;;;;3.63;3.40;;;;;;;2.27;78.96;102260.16;5203563;28;20029;-85
2022/01/27 01:35:11;;;;;;;1.73;1.45;;;;;;;2.41;78.75;102242.47;5234884;28;20031;-84
2022/01/27 01:37:43;;;;;;;2.30;2.20;;;;;;;2.43;79.04;102260.66;5203015;28;20117;-85
2022/01/27 01:40:16;;;;;;;0.93;0.93;;;;;;;2.34;78.80;102264.69;5223439;28;20032;-87
2022/01/27 01:42:46;;;;;;;2.13;2.03;;;;;;;2.39;78.89;102257.09;5214972;28;20040;-85
2022/01/27 01:45:19;;;;;;;2.97;2.78;;;;;;;2.33;79.17;102254.31;5234099;28;20036;-85
2022/01/27 01:47:51;;;;;;;2.25;2.15;;;;;;;2.38;78.43;102252.72;5236769;28;20041;-84
2022/01/27 01:50:21;;;;;;;3.38;3.05;;;;;;;2.28;79.47;102267.09;5230303;28;20017;-85
2022/01/27 01:52:52;;;;;;;1.35;1.35;;;;;;;2.34;79.37;102256.06;5226923;28;20433;-83
2022/01/27 01:55:23;;;;;;;1.58;1.52;;;;;;;2.31;79.45;102262.03;5242027;28;20119;-86
2022/01/27 01:57:57;;;;;;;2.63;2.45;;;;;;;2.23;79.88;102265.19;5206308;28;20245;-85
2022/01/27 02:00:28;;;;;;;3.30;3.10;;;;;;;2.31;79.38;102250.78;5227360;28;20028;-82
2022/01/27 02:02:59;;;;;;;1.58;1.48;;;;;;;2.28;80.03;102246.38;5217873;28;20052;-83
2022/01/27 02:05:35;;;;;;;2.10;1.98;;;;;;;2.29;79.59;102247.25;5212234;28;20082;-83
2022/01/27 02:19:23;;;;;;;2.05;1.95;;;;;;;2.29;79.57;102211.00;5202150;28;20059;-83
2022/01/27 02:22:02;;;;;;;2.50;2.30;;;;;;;2.31;79.88;102207.63;5210409;28;20036;-82
2022/01/27 02:24:35;;;;;;;1.35;1.30;;;;;;;2.30;79.22;102207.56;5187755;28;20025;-85
2022/01/27 02:27:05;;;;;;;1.75;1.70;;;;;;;2.25;80.36;102203.97;5200474;28;20021;-83
2022/01/27 02:29:36;;;;;;;1.88;1.77;;;;;;;2.34;79.83;102199.94;5224589;28;20047;-83
2022/01/27 02:32:07;;;;;;;2.45;2.25;;;;;;;2.38;79.21;102210.41;5222077;28;20039;-82
2022/01/27 02:34:39;;;;;;;1.63;1.55;;;;;;;2.40;79.67;102188.91;5202273;28;20112;-82
2022/01/27 02:37:10;;;;;;;1.58;1.48;;;;;;;2.37;80.11;102188.78;5204553;28;20018;-84
2022/01/27 02:39:41;;;;;;;2.72;2.20;;;;;;;2.39;80.07;102186.28;5209138;28;20080;-82
2022/01/27 02:42:30;;;;;;;1.27;1.27;;;;;;;2.38;79.87;102175.00;5240308;28;20096;-82
2022/01/27 02:45:06;;;;;;;2.35;2.25;;;;;;;2.29;79.96;102185.09;5220427;28;20025;-84
2022/01/27 02:47:37;;;;;;;0.77;0.77;;;;;;;2.29;80.29;102180.81;5202398;28;20100;-85
2022/01/27 02:50:07;;;;;;;1.35;1.25;;;;;;;2.40;79.89;102165.59;5201317;28;20056;-83
2022/01/27 02:52:38;;;;;;;1.98;1.88;;;;;;;2.38;80.33;102171.56;5236781;28;20086;-84
2022/01/27 02:55:09;;;;;;;3.65;2.35;;;;;;;2.43;79.47;102164.78;5216713;28;20152;-86
2022/01/27 02:57:39;;;;;;;2.20;2.10;;;;;;;2.35;79.82;102165.44;5225309;28;20060;-86
2022/01/27 03:00:10;;;;;;;3.15;2.95;;;;;;;2.43;79.82;102168.28;5210651;28;20044;-86
2022/01/27 03:02:41;;;;;;;1.10;1.10;;;;;;;2.45;80.07;102178.69;5204043;28;20075;-84
2022/01/27 03:05:11;;;;;;;2.40;2.28;;;;;;;2.43;79.92;102189.00;5186371;28;20026;-85
2022/01/27 03:07:47;;;;;;;2.63;2.42;;;;;;;2.48;80.30;102184.81;5206142;28;20045;-86
2022/01/27 03:10:19;;;;;;;3.50;2.20;;;;;;;2.37;79.69;102181.03;5204174;28;20014;-84
2022/01/27 03:12:57;;;;;;;1.23;1.23;;;;;;;2.32;79.76;102177.41;5220134;28;20049;-85
2022/01/27 03:15:28;;;;;;;1.77;1.67;;;;;;;2.35;79.95;102164.56;5202772;28;20021;-85
2022/01/27 03:17:58;;;;;;;1.50;1.40;;;;;;;2.41;80.19;102154.38;5198156;28;20044;-85
2022/01/27 03:20:33;;;;;;;0.70;0.70;;;;;;;2.44;79.96;102149.28;5222132;28;20031;-83
2022/01/27 03:23:05;;;;;;;2.20;2.10;;;;;;;2.40;80.12;102141.41;5203049;28;20055;-87
2022/01/27 03:25:36;;;;;;;0.97;0.97;;;;;;;2.45;79.64;102145.84;5188567;28;20024;-84
2022/01/27 03:28:10;;;;;;;1.77;1.60;;;;;;;2.50;79.42;102139.13;5210049;28;20091;-83
2022/01/27 03:30:41;;;;;;;0.55;0.55;;;;;;;2.47;79.69;102145.94;5201437;28;20047;-84
2022/01/27 03:33:11;;;;;;;3.85;3.55;;;;;;;2.44;80.04;102146.69;5225176;28;20109;-85
2022/01/27 03:35:42;;;;;;;4.15;1.90;;;;;;;2.44;79.96;102143.22;5209243;28;20951;-85
2022/01/27 03:38:12;;;;;;;3.70;2.22;;;;;;;2.48;80.29;102130.41;5196794;28;20055;-86
2022/01/27 03:40:43;;;;;;;3.42;3.22;;;;;;;2.49;80.19;102126.09;5234967;28;20276;-85
2022/01/27 03:43:13;;;;;;;2.13;2.03;;;;;;;2.58;79.47;102125.50;5210128;28;20052;-85
2022/01/27 03:45:44;;;;;;;1.13;1.13;;;;;;;2.55;79.83;102126.31;5190966;28;20193;-84
2022/01/27 03:48:14;;;;;;;1.98;1.88;;;;;;;2.58;79.69;102125.50;5192845;28;20048;-87
2022/01/27 03:50:45;;;;;;;1.38;1.35;;;;;;;2.58;80.07;102109.97;5195419;28;20014;-84
2022/01/27 03:53:15;;;;;;;2.35;2.20;;;;;;;2.57;79.86;102109.06;5191063;28;20058;-82
2022/01/27 03:55:46;;;;;;;3.28;3.08;;;;;;;2.58;80.44;102109.97;5199761;28;20041;-84
2022/01/27 03:58:16;;;;;;;4.50;3.03;;;;;;;2.62;80.65;102098.81;5186898;28;20033;-84
2022/01/27 04:00:47;;;;;;;2.15;2.05;;;;;;;2.63;80.28;102092.81;5206482;28;20049;-87
2022/01/27 04:03:19;;;;;;;2.05;1.95;;;;;;;2.60;80.00;102105.69;5196868;28;20033;-87
2022/01/27 04:05:55;;;;;;;1.83;1.70;;;;;;;2.62;80.39;102104.00;5183945;28;20050;-82
2022/01/27 04:08:25;;;;;;;1.20;1.20;;;;;;;2.67;79.93;102115.41;5195524;28;20104;-85
2022/01/27 04:10:56;;;;;;;1.35;1.25;;;;;;;2.63;80.02;102109.25;5180101;28;20063;-83
2022/01/27 04:13:26;;;;;;;2.45;2.35;;;;;;;2.67;80.14;102113.66;5196686;28;20634;-83
2022/01/27 04:15:57;;;;;;;5.47;2.90;;;;;;;2.68;79.88;102107.66;5212914;28;20025;-85
2022/01/27 04:18:28;;;;;;;2.85;2.15;;;;;;;2.66;80.46;102093.78;5185215;28;20042;-86
2022/01/27 04:20:58;;;;;;;0.95;0.95;;;;;;;2.71;80.10;102096.50;5221412;28;20448;-83
2022/01/27 04:23:29;;;;;;;0.98;0.98;;;;;;;2.76;79.97;102102.69;5190519;28;20060;-84
2022/01/27 04:26:00;;;;;;;2.78;2.47;;;;;;;2.78;80.00;102103.59;5184272;28;20029;-84
2022/01/27 04:28:33;;;;;;;1.48;1.38;;;;;;;2.80;79.89;102080.31;5223163;28;20045;-86
2022/01/27 04:31:07;;;;;;;1.02;0.98;;;;;;;2.89;80.18;102074.50;5206650;28;20052;-84
2022/01/27 04:33:39;;;;;;;;;;;;;;;2.87;80.02;102076.16;5203767;28;20045;-85
2022/01/27 04:36:53;;;;;;;1.67;1.60;;;;;;;2.84;79.96;102076.97;5215202;28;19923;-84
2022/01/27 04:46:49;;;;;;;1.92;1.83;;;;;;;2.95;80.28;102070.38;5215078;28;20029;-84
2022/01/27 04:49:19;;;;;;;2.95;2.75;;;;;;;2.95;80.38;102072.06;5194204;28;20129;-82
2022/01/27 04:51:50;;;;;;;1.50;1.40;;;;;;;2.93;80.83;102071.16;5175849;28;20064;-82
2022/01/27 04:54:37;;;;;;;0.80;0.80;;;;;;;3.01;80.64;102058.38;5231661;28;20067;-87
2022/01/27 04:57:08;;;;;;;2.08;1.98;;;;;;;3.03;80.44;102054.97;5217583;28;20040;-84
2022/01/27 04:59:42;;;;;;;2.03;1.83;;;;;;;3.02;80.63;102045.44;5219726;28;20024;-86
2022/01/27 05:02:22;;;;;;;0.95;0.95;;;;;;;3.01;80.42;102037.63;5219632;28;20032;-83
2022/01/27 05:04:52;;;;;;;2.03;1.92;;;;;;;3.04;80.84;102046.38;5203326;28;20021;-85
2022/01/27 05:07:23;;;;;;;0.77;0.77;;;;;;;3.05;80.74;102029.97;5182285;28;20080;-87
2022/01/27 05:09:59;;;;;;;1.38;1.38;;;;;;;3.05;81.04;102024.78;5183889;28;20029;-85
2022/01/27 05:12:40;;;;;;;1.58;1.50;;;;;;;3.10;80.53;102017.13;5199497;28;20061;-86
2022/01/27 05:15:12;;;;;;;1.50;1.42;;;;;;;3.17;80.22;102007.78;5186014;28;20108;-84
2022/01/27 05:17:42;;;;;;;2.35;2.25;;;;;;;3.13;80.80;101986.94;5181296;28;20087;-86
2022/01/27 05:20:13;;;;;;;1.92;1.83;;;;;;;3.15;81.14;101980.09;5182674;28;20037;-83
2022/01/27 05:22:43;;;;;;;1.50;1.42;;;;;;;3.22;80.63;101981.13;5187940;28;20038;-82
2022/01/27 05:25:14;;;;;;;2.75;1.80;;;;;;;3.26;81.04;101974.28;5232292;28;20036;-86
2022/01/27 05:27:44;;;;;;;1.60;1.50;;;;;;;3.24;80.79;101978.56;5216897;28;20029;-84
2022/01/27 05:30:15;;;;;;;2.50;1.58;;;;;;;3.29;81.44;101987.31;5238629;28;20063;-82
2022/01/27 05:32:45;;;;;;;1.48;1.48;;;;;;;3.32;80.90;101992.59;5227577;28;20037;-83
2022/01/27 05:35:16;;;;;;;2.38;2.17;;;;;;;3.31;81.29;101985.63;5230897;28;20033;-88
2022/01/27 05:37:57;;;;;;;3.35;2.75;;;;;;;3.33;81.62;101983.06;5216293;28;20383;-84
2022/01/27 05:40:33;;;;;;;1.15;1.15;;;;;;;3.38;81.43;101977.16;5209255;28;20040;-83
2022/01/27 05:43:03;;;;;;;3.55;2.88;;;;;;;3.41;81.56;101985.03;5230693;28;20037;-83
2022/01/27 05:45:34;;;;;;;1.25;1.25;;;;;;;3.42;81.15;101975.50;5199473;28;20424;-85
2022/01/27 05:48:04;;;;;;;2.15;1.95;;;;;;;3.46;81.28;101969.56;5227365;28;20075;-85
2022/01/27 05:50:35;;;;;;;1.45;1.45;;;;;;;3.53;81.18;101962.75;5224644;28;20047;-85
2022/01/27 05:53:06;;;;;;;1.00;1.00;;;;;;;3.51;81.52;101967.06;5217838;28;20038;-87
2022/01/27 05:55:36;;;;;;;1.60;1.25;;;;;;;3.49;81.07;101966.16;5214857;28;20029;-85
2022/01/27 05:58:07;;;;;;;1.58;1.55;;;;;;;3.51;81.53;101952.34;5234173;28;20041;-83
2022/01/27 06:00:37;;;;;;;1.83;1.67;;;;;;;3.56;81.16;101944.66;5199941;28;20148;-84
2022/01/27 06:03:08;;;;;;;0.57;0.57;;;;;;;3.60;81.17;101936.09;5207516;28;20033;-86
2022/01/27 06:05:39;;;;;;;5.97;3.00;;;;;;;3.64;81.37;101937.06;5182354;28;20106;-85
2022/01/27 06:08:09;;;;;;;1.40;1.30;;;;;;;3.63;81.71;101938.75;5195705;28;20061;-83
2022/01/27 06:10:39;;;;;;;0.95;0.93;;;;;;;3.67;80.66;101932.81;5181234;28;20052;-85
2022/01/27 06:13:10;;;;;;;10.77;2.92;;;;;;;3.67;80.69;101938.00;5219909;28;20036;-86
2022/01/27 06:15:41;;;;;;;3.20;3.00;;;;;;;3.66;81.44;101928.47;5233434;28;20037;-86
2022/01/27 06:18:11;;;;;;;4.57;2.38;;;;;;;3.72;81.25;101922.53;5210284;28;20037;-86
2022/01/27 06:20:45;;;;;;;1.95;1.85;;;;;;;3.76;80.79;101938.16;5189021;28;20064;-84
2022/01/27 06:23:16;;;;;;;1.83;1.73;;;;;;;3.77;81.11;101924.34;5209395;28;20050;-82
2022/01/27 06:25:46;;;;;;;1.30;1.30;;;;;;;3.75;81.10;101915.69;5197330;28;20033;-83
2022/01/27 06:28:17;;;;;;;2.75;2.08;;;;;;;3.75;81.30;101910.47;5210317;28;20078;-83
2022/01/27 06:30:47;;;;;;;2.72;1.90;;;;;;;3.77;80.98;101898.38;5231174;28;20142;-85
2022/01/27 06:33:18;;;;;;;1.02;1.00;;;;;;;3.80;81.55;101897.59;5203287;28;20108;-84
2022/01/27 06:35:49;;;;;;;3.20;3.00;;;;;;;3.85;81.33;101895.06;5179253;28;20040;-86
2022/01/27 06:38:19;;;;;;;2.15;1.88;;;;;;;3.85;81.37;101887.28;5190712;28;20052;-83
2022/01/27 06:40:50;;;;;;;1.30;1.25;;;;;;;3.85;80.89;101885.56;5218624;28;20025;-82
2022/01/27 06:43:20;;;;;;;0.95;0.95;;;;;;;3.87;81.12;101890.78;5215101;28;20065;-82
2022/01/27 06:45:51;;;;;;;2.17;2.08;;;;;;;3.90;80.54;101883.91;5220685;28;20048;-83
2022/01/27 06:48:21;;;;;;;2.42;1.70;;;;;;;3.87;81.35;101878.69;5214882;28;20094;-84
2022/01/27 06:50:54;;;;;;;1.42;1.40;;;;;;;3.91;81.06;101864.03;5200536;28;20025;-85
2022/01/27 06:53:25;;;;;;;1.80;1.70;;;;;;;3.91;80.87;101877.03;5220411;28;20055;-83
2022/01/27 06:55:56;;;;;;;2.42;2.25;;;;;;;3.93;80.63;101872.72;5210608;28;20025;-83
2022/01/27 06:58:26;;;;;;;2.20;2.00;;;;;;;3.93;80.89;101857.13;5215266;28;20028;-82
2022/01/27 07:00:57;;;;;;;0.60;0.60;;;;;;;3.94;81.02;101854.59;5224517;28;20056;-82
2022/01/27 07:03:27;;;;;;;2.95;2.78;;;;;;;3.97;80.63;101851.16;5219155;28;20051;-87
2022/01/27 07:05:57;;;;;;;2.45;2.25;;;;;;;3.96;81.22;101849.41;5247840;28;20032;-85
2022/01/27 07:08:28;;;;;;;1.25;1.17;;;;;;;3.94;80.95;101853.69;5219333;28;20040;-81
2022/01/27 07:10:58;;;;;;;2.33;1.63;;;;;;;3.95;81.52;101855.44;5226126;28;20068;-79
2022/01/27 07:13:29;;;;;;;2.95;2.75;;;;;;;3.98;81.08;101854.63;5214069;28;20057;-79
2022/01/27 07:16:00;;;;;;;3.45;2.20;;;;;;;3.99;81.61;101852.06;5215976;28;20048;-79
2022/01/27 07:18:30;;;;;;;1.10;1.08;;;;;;;3.97;81.60;101864.16;5199991;28;20462;-79
2022/01/27 07:21:01;;;;;;;5.57;3.35;;;;;;;4.04;81.34;101859.94;5225698;28;20107;-80
2022/01/27 07:23:32;;;;;;;2.15;1.98;;;;;;;4.06;81.68;101853.94;5201655;28;20067;-81
2022/01/27 07:26:03;;;;;;;1.13;1.13;;;;;;;4.08;81.23;101849.66;5184361;28;20033;-84
2022/01/27 07:28:34;;;;;;;1.00;1.00;;;;;;;4.10;81.24;101858.31;5195940;28;20037;-81
2022/01/27 07:31:04;;;;;;;2.53;2.33;;;;;;;4.12;81.31;101847.09;5176710;28;20029;-83
2022/01/27 07:33:35;;;;;;;2.30;2.20;;;;;;;4.13;81.82;101843.66;5174079;28;20034;-82
2022/01/27 07:36:05;;;;;;;1.75;1.73;;;;;;;4.17;81.07;101851.53;5196133;28;20029;-81
2022/01/27 07:38:36;;;;;;;1.70;1.60;;;;;;;4.19;81.26;101849.84;5188272;28;20041;-81
2022/01/27 07:41:06;;;;;;;2.17;1.50;;;;;;;4.21;81.16;101842.06;5209968;28;20033;-82
2022/01/27 07:43:37;;;;;;;11.23;3.95;;;;;;;4.22;81.71;101834.28;5192733;28;20236;-82
2022/01/27 07:46:07;;;;;;;1.52;1.38;;;;;;;4.21;81.81;101842.06;5200642;28;20489;-82
2022/01/27 07:48:41;;;;;;;1.20;1.15;;;;;;;4.23;82.01;101828.25;5223346;28;20498;-82
2022/01/27 07:51:12;;;;;;;1.35;1.30;;;;;;;4.24;81.22;101823.94;5223277;28;20036;-82
2022/01/27 07:53:43;;;;;;;1.40;1.30;;;;;;;4.26;81.78;101819.63;5212787;28;20033;-81
2022/01/27 07:56:13;;;;;;;4.93;2.40;;;;;;;4.30;81.28;101795.44;5197216;28;20052;-82
2022/01/27 07:58:44;;;;;;;1.85;1.70;;;;;;;4.30;82.03;101807.59;5203737;28;20037;-83
2022/01/27 08:01:14;;;;;;;2.67;2.50;;;;;;;4.33;81.38;101812.81;5198290;28;20029;-82
2022/01/27 08:03:45;;;;;;;0.95;0.95;;;;;;;4.30;81.70;101831.81;5214888;28;20110;-83
2022/01/27 08:06:16;;;;;;;10.43;4.07;;;;;;;4.30;82.04;101841.34;5205294;28;20116;-81
2022/01/27 08:08:47;;;;;;;3.25;2.95;;;;;;;4.31;81.80;101837.88;5196394;28;20130;-81
2022/01/27 08:11:19;;;;;;;2.92;2.65;;;;;;;4.36;81.73;101846.66;5198714;28;20024;-80
2022/01/27 08:13:49;;;;;;;2.65;2.55;;;;;;;4.36;82.02;101846.66;5177644;28;20045;-80
2022/01/27 08:16:20;;;;;;;2.53;1.77;;;;;;;4.36;82.10;101844.91;5206017;28;20665;-82
2022/01/27 08:18:50;;;;;;;2.03;1.52;;;;;;;4.37;82.34;101853.59;5204185;28;20073;-83
2022/01/27 08:21:21;;;;;;;2.40;2.30;;;;;;;4.43;82.44;101858.00;5209769;28;20043;-82
2022/01/27 08:23:53;;;;;;;30.20;2.83;;;;;;;4.43;81.88;101863.19;5214503;28;20072;-81
2022/01/27 08:26:46;;;;;;;2.42;2.33;;;;;;;4.44;82.34;101867.56;5207074;28;20393;-83
2022/01/27 08:29:38;;;;;;;;;;;;;;;4.40;82.90;101861.44;5143885;23;20180;-82
2022/01/27 08:32:27;;;;;;;1.92;1.02;;;;;;;4.43;83.44;101848.50;5180016;28;24445;-83
2022/01/27 08:35:10;;;;;;;;;;;;;;;;;;;;;
2022/01/27 08:38:13;;;;;;;4.25;2.25;;;;;;;4.40;84.79;101856.22;5217377;28;20307;-83
2022/01/27 08:41:04;;;;;;;4.80;3.45;;;;;;;4.39;85.72;101837.19;5192277;28;20021;-81
2022/01/27 08:43:40;;;;;;;2.40;1.98;;;;;;;4.39;86.44;101844.97;5162502;28;20958;-82
2022/01/27 08:46:26;;;;;;;1.52;1.42;;;;;;;4.33;87.82;101844.00;5178656;28;21133;-82
2022/01/27 08:49:05;;;;;;;0.90;0.90;;;;;;;4.32;87.97;101850.03;5166041;28;20044;-81
2022/01/27 08:51:36;;;;;;;4.38;3.13;;;;;;;4.34;88.40;101856.13;5186454;28;20028;-81
2022/01/27 08:54:30;;;;;;;1.70;1.48;;;;;;;4.33;87.62;101868.28;5181150;28;20071;-81
2022/01/27 08:57:11;;;;;;;1.58;1.52;;;;;;;4.29;88.82;101861.25;5179772;28;20040;-84
2022/01/27 08:59:46;;;;;;;5.53;1.85;;;;;;;4.27;88.89;101862.94;5167553;28;20025;-82
2022/01/27 09:02:28;;;;;;;0.88;0.88;;;;;;;4.29;89.30;101866.44;5203107;28;20041;-83
2022/01/27 09:05:05;;;;;;;1.33;1.33;;;;;;;4.25;89.23;101875.06;5177710;28;20039;-82
2022/01/27 09:07:36;;;;;;;1.88;1.77;;;;;;;4.25;89.50;101862.91;5176609;28;20045;-82
2022/01/27 09:10:08;;;;;;;1.75;1.60;;;;;;;4.28;89.79;101861.25;5211487;28;20037;-83
2022/01/27 09:12:38;;;;;;;2.20;2.10;;;;;;;4.20;89.71;101856.78;5196788;28;20546;-82
2022/01/27 09:15:09;;;;;;;1.30;1.30;;;;;;;4.21;89.33;101852.44;5177669;28;20037;-83
2022/01/27 09:17:40;;;;;;;1.30;1.30;;;;;;;4.23;90.11;101850.75;5180298;28;20420;-82
2022/01/27 09:20:30;;;;;;;3.28;2.97;;;;;;;4.25;90.18;101844.72;5165949;28;20037;-82
2022/01/27 09:23:02;;;;;;;1.30;1.30;;;;;;;4.28;90.42;101840.44;5185794;28;20148;-81
2022/01/27 09:25:41;;;;;;;2.33;2.13;;;;;;;4.25;89.87;101836.09;5188969;28;20096;-80
2022/01/27 09:28:16;;;;;;;3.65;3.17;;;;;;;4.20;91.02;101840.31;5212014;28;20025;-84
2022/01/27 09:30:47;;;;;;;2.55;2.35;;;;;;;4.23;91.00;101855.97;5199243;28;20132;-80
2022/01/27 09:33:18;;;;;;;1.75;1.65;;;;;;;4.29;91.03;101853.47;5212830;28;20083;-80
2022/01/27 09:35:49;;;;;;;1.38;1.35;;;;;;;4.22;91.32;101843.81;5179685;28;20135;-81
2022/01/27 09:38:22;;;;;;;1.83;1.73;;;;;;;4.23;92.22;101848.16;5189170;28;20400;-80
2022/01/27 09:40:55;;;;;;;3.08;0.93;;;;;;;4.25;91.69;101849.06;5175222;28;20070;-82
2022/01/27 09:44:04;;;;;;;1.33;1.13;;;;;;;4.31;91.85;101848.28;5192019;28;20037;-82
2022/01/27 09:46:35;;;;;;;1.65;1.55;;;;;;;4.27;92.35;101847.34;5191531;28;20025;-82
2022/01/27 09:49:12;;;;;;;2.75;2.55;;;;;;;4.29;92.31;101850.00;5175896;28;20045;-83
2022/01/27 09:51:57;;;;;;;0.77;0.77;;;;;;;4.31;92.34;101848.28;5206135;28;20040;-83
2022/01/27 09:54:56;;;;;;;1.42;1.35;;;;;;;4.34;92.56;101851.81;5196911;28;20165;-83
2022/01/27 09:57:27;;;;;;;3.95;2.78;;;;;;;4.32;92.58;101850.94;5190582;28;20104;-83
2022/01/27 10:00:02;;;;;;;2.22;2.13;;;;;;;4.31;92.61;101841.38;5193072;28;20079;-85
2022/01/27 10:03:13;;;;;;;3.90;3.55;;;;;;;4.35;93.25;101847.50;5170489;28;20047;-86
2022/01/27 10:05:52;;;;;;;0.77;0.77;;;;;;;4.32;93.88;101840.53;5180307;28;20075;-83
2022/01/27 10:08:31;;;;;;;0.98;0.98;;;;;;;4.35;93.83;101847.50;5185409;28;20041;-85
2022/01/27 10:11:21;;;;;;;1.15;1.15;;;;;;;4.39;93.55;101841.47;5184242;28;20029;-83
2022/01/27 10:13:52;;;;;;;2.30;1.85;;;;;;;4.37;93.58;101844.06;5184396;28;20094;-83
2022/01/27 10:16:44;;;;;;;1.85;1.75;;;;;;;4.40;94.11;101838.94;5193710;28;20083;-82
2022/01/27 10:19:20;;;;;;;1.05;1.00;;;;;;;4.43;93.35;101835.50;5183417;28;20044;-85
2022/01/27 10:22:01;;;;;;;1.73;1.65;;;;;;;4.48;93.42;101832.97;5184887;28;20065;-83
2022/01/27 10:24:36;;;;;;;1.35;1.35;;;;;;;4.47;93.04;101834.69;5177572;28;20298;-84
2022/01/27 10:33:51;;;;;;;0.77;0.75;;;;;;;4.54;93.60;101825.28;5203325;28;20127;-83
2022/01/27 10:37:08;;;;;;;;;;;;;;;;;;;;;
2022/01/27 10:39:55;;;;;;;0.88;0.88;;;;;;;4.61;93.43;101831.44;5201525;28;20045;-83
2022/01/27 10:42:38;;;;;;;0.57;0.57;;;;;;;4.61;93.55;101824.50;5188178;28;20033;-84
2022/01/27 10:45:09;;;;;;;1.50;1.40;;;;;;;4.66;93.76;101833.28;5197199;28;20333;-82
2022/01/27 10:47:44;;;;;;;1.00;1.00;;;;;;;4.73;93.96;101829.03;5213515;28;20412;-82
2022/01/27 10:50:21;;;;;;;2.75;2.05;;;;;;;4.72;94.12;101833.38;5186918;28;20031;-82
2022/01/27 10:52:57;;;;;;;0.75;0.75;;;;;;;4.69;94.05;101830.69;5199302;28;20241;-83
2022/01/27 10:55:30;;;;;;;0.68;0.68;;;;;;;4.73;94.66;101826.41;5201244;28;20029;-82
2022/01/27 10:58:01;;;;;;;8.20;2.83;;;;;;;4.72;94.80;101817.75;5198660;28;20052;-82
2022/01/27 11:00:36;;;;;;;2.67;1.52;;;;;;;4.75;94.55;101829.94;5189496;28;20030;-81
2022/01/27 11:03:10;;;;;;;1.33;1.30;;;;;;;4.78;95.03;101829.09;5183982;28;20032;-82
2022/01/27 11:05:45;;;;;;;1.85;1.33;;;;;;;4.80;94.83;101824.78;5180122;28;20032;-83
2022/01/27 11:08:18;;;;;;;1.42;1.42;;;;;;;4.85;94.46;101823.13;5196402;28;20033;-83
2022/01/27 11:10:50;;;;;;;0.50;0.50;;;;;;;4.82;95.11;101818.75;5186661;28;20028;-85
2022/01/27 11:13:24;;;;;;;2.55;2.35;;;;;;;4.86;95.08;101817.06;5183336;28;20033;-83
2022/01/27 11:15:56;;;;;;;1.55;1.38;;;;;;;4.92;94.63;101821.50;5179329;28;20032;-84
2022/01/27 11:18:30;;;;;;;1.42;1.38;;;;;;;4.91;94.38;101823.22;5191575;28;20497;-84
2022/01/27 11:21:23;;;;;;;0.70;0.70;;;;;;;4.93;94.69;101818.03;5176719;28;20079;-82
2022/01/27 11:24:08;;;;;;;0.85;0.85;;;;;;;4.92;95.44;101811.94;5181493;28;20095;-83
2022/01/27 11:26:44;;;;;;;0.77;0.77;;;;;;;4.94;95.27;101799.84;5195264;28;20055;-84
2022/01/27 11:29:17;;;;;;;1.40;1.30;;;;;;;4.95;94.75;101812.00;5182356;28;20101;-84
2022/01/27 11:32:33;;;;;;;0.82;0.82;;;;;;;4.96;95.06;101792.09;5178129;28;20114;-83
2022/01/27 11:35:22;;;;;;;1.63;1.52;;;;;;;4.99;95.38;101797.31;5184284;28;20036;-81
2022/01/27 11:38:01;;;;;;;1.13;1.13;;;;;;;5.02;94.95;101797.38;5181010;28;20048;-84
2022/01/27 11:40:37;;;;;;;1.33;1.23;;;;;;;4.99;95.17;101787.81;5202196;28;20058;-84
2022/01/27 11:43:18;;;;;;;1.25;1.25;;;;;;;5.01;94.69;101786.06;5206308;28;20029;-83
2022/01/27 11:45:51;;;;;;;7.47;1.13;;;;;;;5.04;95.39;101785.25;5187392;28;20037;-81
2022/01/27 11:48:25;;;;;;;;;;;;;;;5.07;94.80;101784.41;5196788;28;20045;-82
2022/01/27 11:50:59;;;;;;;;;;;;;;;5.05;94.93;101786.97;5184949;28;19909;-81
2022/01/27 11:53:48;;;;;;;0.75;0.75;;;;;;;5.07;95.55;101790.47;5192900;28;19992;-83
2022/01/27 11:56:26;;;;;;;;;;;;;;;5.06;95.56;101777.47;5197075;28;20044;-83
2022/01/27 11:59:01;;;;;;;1.70;1.60;;;;;;;5.07;95.73;101771.41;5179459;28;19948;-81
2022/01/27 12:01:36;;;;;;;1.20;1.17;;;;;;;5.07;95.25;101774.88;5218070;28;20035;-82
2022/01/27 12:04:15;;;;;;;1.38;1.38;;;;;;;5.08;95.37;101776.63;5178614;28;20068;-80
2022/01/27 12:06:49;;;;;;;1.17;1.17;;;;;;;5.08;96.03;101775.75;5176605;28;20486;-81
2022/01/27 12:09:19;;;;;;;;;;;;;;;5.04;95.88;101767.91;5180752;28;20045;-82
2022/01/27 12:11:55;;;;;;;1.63;1.52;;;;;;;5.06;95.84;101772.25;5190528;28;20335;-82
2022/01/27 12:14:30;;;;;;;2.10;2.00;;;;;;;5.10;95.83;101769.72;5177434;28;20083;-81
2022/01/27 12:17:07;;;;;;;1.17;1.13;;;;;;;5.13;95.60;101771.47;5180123;28;20140;-81
2022/01/27 12:20:04;;;;;;;1.40;1.33;;;;;;;5.17;95.76;101771.53;5183166;28;20074;-81
2022/01/27 12:22:46;;;;;;;1.58;1.55;;;;;;;5.13;96.02;101759.34;5204916;28;20120;-81
2022/01/27 12:25:20;;;;;;;1.42;1.33;;;;;;;5.14;96.23;101760.22;5193043;28;20033;-81
2022/01/27 12:27:54;;;;;;;1.02;1.02;;;;;;;5.18;95.70;101762.00;5211825;28;20065;-80
2022/01/27 12:30:27;;;;;;;0.40;0.40;;;;;;;5.19;95.61;101766.34;5215065;28;20025;-80
2022/01/27 12:32:58;;;;;;;1.25;1.15;;;;;;;5.20;96.12;101755.09;5185041;28;20064;-82
2022/01/27 12:35:31;;;;;;;1.83;1.70;;;;;;;5.21;95.47;101756.84;5206014;28;20037;-82
2022/01/27 12:38:05;;;;;;;1.67;1.17;;;;;;;5.20;95.30;101753.38;5171304;28;20040;-84
2022/01/27 12:40:39;;;;;;;1.90;1.20;;;;;;;5.21;95.74;101746.44;5191132;28;20120;-85
2022/01/27 12:43:27;;;;;;;0.82;0.82;;;;;;;5.29;95.37;101744.78;5198563;28;20122;-82
2022/01/27 12:46:06;;;;;;;0.95;0.95;;;;;;;5.28;95.68;101737.84;5184322;28;20436;-84
2022/01/27 12:48:45;;;;;;;1.35;1.25;;;;;;;5.29;95.52;101739.59;5174714;28;20033;-86
2022/01/27 12:51:23;;;;;;;1.05;1.05;;;;;;;5.29;95.47;101744.78;5173702;28;20116;-84
2022/01/27 12:54:01;;;;;;;0.77;0.77;;;;;;;5.32;95.59;101739.63;5181015;28;20037;-84
2022/01/27 12:56:35;;;;;;;1.40;0.88;;;;;;;5.32;95.74;101737.03;5193395;28;20025;-81
2022/01/27 12:59:13;;;;;;;0.93;0.93;;;;;;;5.32;95.46;101739.63;5180573;28;20463;-81
2022/01/27 13:01:55;;;;;;;1.00;0.98;;;;;;;5.31;96.04;101739.59;5183607;28;20163;-81